sensor_id;sensor_type;location;lat;lon;timestamp;temperature;humidity
18880;DHT22;9572;52.378;13.404;2022-11-15T00:01:16;5.20;99.90
18880;DHT22;9572;52.378;13.404;2022-11-15T00:03:44;5.20;99.90
18880;DHT22;9572;52.378;13.404;2022-11-15T00:06:11;5.20;99.90
18880;DHT22;9572;52.378;13.404;2022-11-15T00:08:38;5.20;99.90
18880;DHT22;9572;52.378;13.404;2022-11-15T00:11:05;5.20;99.90
18880;DHT22;9572;52.378;13.404;2022-11-15T00:13:32;5.10;99.90
18880;DHT22;9572;52.378;13.404;2022-11-15T00:16:01;5.10;99.90
18880;DHT22;9572;52.378;13.404;2022-11-15T00:18:29;5.10;99.90
18880;DHT22;9572;52.378;13.404;2022-11-15T00:21:02;5.10;99.90
18880;DHT22;9572;52.378;13.404;2022-11-15T00:23:29;5.10;99.90
18880;DHT22;9572;52.378;13.404;2022-11-15T00:25:56;5.10;99.90
18880;DHT22;9572;52.378;13.404;2022-11-15T00:28:23;5.10;99.90
18880;DHT22;9572;52.378;13.404;2022-11-15T00:30:50;5.00;99.90
18880;DHT22;9572;52.378;13.404;2022-11-15T00:33:19;5.00;99.90
18880;DHT22;9572;52.378;13.404;2022-11-15T00:35:45;5.00;99.90
18880;DHT22;9572;52.378;13.404;2022-11-15T00:38:12;5.00;99.90
18880;DHT22;9572;52.378;13.404;2022-11-15T00:40:39;5.00;99.90
18880;DHT22;9572;52.378;13.404;2022-11-15T00:43:06;4.90;99.90
18880;DHT22;9572;52.378;13.404;2022-11-15T00:45:33;4.90;99.90
18880;DHT22;9572;52.378;13.404;2022-11-15T00:48:00;4.90;99.90
18880;DHT22;9572;52.378;13.404;2022-11-15T00:50:28;4.90;99.90
18880;DHT22;9572;52.378;13.404;2022-11-15T00:52:55;4.80;99.90
18880;DHT22;9572;52.378;13.404;2022-11-15T00:55:22;4.80;99.90
18880;DHT22;9572;52.378;13.404;2022-11-15T00:57:49;4.80;99.90
18880;DHT22;9572;52.378;13.404;2022-11-15T01:00:16;4.80;99.90
18880;DHT22;9572;52.378;13.404;2022-11-15T01:02:43;4.80;99.90
18880;DHT22;9572;52.378;13.404;2022-11-15T01:05:10;4.70;99.90
18880;DHT22;9572;52.378;13.404;2022-11-15T01:07:39;4.80;99.90
18880;DHT22;9572;52.378;13.404;2022-11-15T01:10:06;4.70;99.90
18880;DHT22;9572;52.378;13.404;2022-11-15T01:12:33;4.70;99.90
18880;DHT22;9572;52.378;13.404;2022-11-15T01:15:00;4.70;99.90
18880;DHT22;9572;52.378;13.404;2022-11-15T01:17:27;4.70;99.90
18880;DHT22;9572;52.378;13.404;2022-11-15T01:19:54;4.70;99.90
18880;DHT22;9572;52.378;13.404;2022-11-15T01:22:21;4.60;99.90
18880;DHT22;9572;52.378;13.404;2022-11-15T01:24:50;4.70;99.90
18880;DHT22;9572;52.378;13.404;2022-11-15T01:27:18;4.70;99.90
18880;DHT22;9572;52.378;13.404;2022-11-15T01:29:44;4.60;99.90
18880;DHT22;9572;52.378;13.404;2022-11-15T01:32:11;4.60;99.90
18880;DHT22;9572;52.378;13.404;2022-11-15T01:34:38;4.60;99.90
18880;DHT22;9572;52.378;13.404;2022-11-15T01:37:05;4.60;99.90
18880;DHT22;9572;52.378;13.404;2022-11-15T01:39:33;4.60;99.90
18880;DHT22;9572;52.378;13.404;2022-11-15T01:42:02;4.60;99.90
18880;DHT22;9572;52.378;13.404;2022-11-15T01:44:43;4.60;99.90
18880;DHT22;9572;52.378;13.404;2022-11-15T01:47:13;4.50;99.90
18880;DHT22;9572;52.378;13.404;2022-11-15T01:49:49;4.50;99.90
18880;DHT22;9572;52.378;13.404;2022-11-15T01:52:19;4.50;99.90
18880;DHT22;9572;52.378;13.404;2022-11-15T01:54:48;4.40;99.90
18880;DHT22;9572;52.378;13.404;2022-11-15T01:57:17;4.40;99.90
18880;DHT22;9572;52.378;13.404;2022-11-15T01:59:45;4.40;99.90
18880;DHT22;9572;52.378;13.404;2022-11-15T02:02:12;4.40;99.90
18880;DHT22;9572;52.378;13.404;2022-11-15T02:04:42;4.40;99.90
18880;DHT22;9572;52.378;13.404;2022-11-15T02:07:12;4.40;99.90
18880;DHT22;9572;52.378;13.404;2022-11-15T02:09:40;4.30;99.90
18880;DHT22;9572;52.378;13.404;2022-11-15T02:12:08;4.30;99.90
18880;DHT22;9572;52.378;13.404;2022-11-15T02:14:38;4.40;99.90
18880;DHT22;9572;52.378;13.404;2022-11-15T02:17:15;4.30;99.90
18880;DHT22;9572;52.378;13.404;2022-11-15T02:23:04;4.30;99.90
18880;DHT22;9572;52.378;13.404;2022-11-15T02:25:39;4.30;99.90
18880;DHT22;9572;52.378;13.404;2022-11-15T02:31:19;4.30;99.90
18880;DHT22;9572;52.378;13.404;2022-11-15T02:33:57;4.30;99.90
18880;DHT22;9572;52.378;13.404;2022-11-15T02:36:35;4.30;99.90
18880;DHT22;9572;52.378;13.404;2022-11-15T02:39:07;4.30;99.90
18880;DHT22;9572;52.378;13.404;2022-11-15T02:41:42;4.30;99.90
18880;DHT22;9572;52.378;13.404;2022-11-15T02:44:16;4.30;99.90
18880;DHT22;9572;52.378;13.404;2022-11-15T02:46:48;4.30;99.90
18880;DHT22;9572;52.378;13.404;2022-11-15T02:49:34;4.30;99.90
18880;DHT22;9572;52.378;13.404;2022-11-15T02:52:02;4.30;99.90
18880;DHT22;9572;52.378;13.404;2022-11-15T02:54:31;4.20;99.90
18880;DHT22;9572;52.378;13.404;2022-11-15T02:57:02;4.20;99.90
18880;DHT22;9572;52.378;13.404;2022-11-15T02:59:58;4.20;99.90
18880;DHT22;9572;52.378;13.404;2022-11-15T03:05:40;4.20;99.90
18880;DHT22;9572;52.378;13.404;2022-11-15T03:08:12;4.20;99.90
18880;DHT22;9572;52.378;13.404;2022-11-15T03:10:46;4.10;99.90
18880;DHT22;9572;52.378;13.404;2022-11-15T03:13:21;4.10;99.90
18880;DHT22;9572;52.378;13.404;2022-11-15T03:15:56;4.10;99.90
18880;DHT22;9572;52.378;13.404;2022-11-15T03:18:27;4.10;99.90
18880;DHT22;9572;52.378;13.404;2022-11-15T03:20:58;4.10;99.90
18880;DHT22;9572;52.378;13.404;2022-11-15T03:23:27;4.20;99.90
18880;DHT22;9572;52.378;13.404;2022-11-15T03:25:56;4.10;99.90
18880;DHT22;9572;52.378;13.404;2022-11-15T03:28:26;4.10;99.90
18880;DHT22;9572;52.378;13.404;2022-11-15T03:30:55;4.10;99.90
18880;DHT22;9572;52.378;13.404;2022-11-15T03:33:23;4.10;99.90
18880;DHT22;9572;52.378;13.404;2022-11-15T03:35:51;4.20;99.90
18880;DHT22;9572;52.378;13.404;2022-11-15T03:38:24;4.20;99.90
18880;DHT22;9572;52.378;13.404;2022-11-15T03:40:54;4.20;99.90
18880;DHT22;9572;52.378;13.404;2022-11-15T03:43:30;4.20;99.90
18880;DHT22;9572;52.378;13.404;2022-11-15T03:46:02;4.20;99.90
18880;DHT22;9572;52.378;13.404;2022-11-15T03:48:34;4.10;99.90
18880;DHT22;9572;52.378;13.404;2022-11-15T03:51:03;4.10;99.90
18880;DHT22;9572;52.378;13.404;2022-11-15T03:53:32;4.10;99.90
18880;DHT22;9572;52.378;13.404;2022-11-15T03:55:59;4.20;99.90
18880;DHT22;9572;52.378;13.404;2022-11-15T03:58:25;4.20;99.90
18880;DHT22;9572;52.378;13.404;2022-11-15T04:00:52;4.20;99.90
18880;DHT22;9572;52.378;13.404;2022-11-15T04:03:19;4.20;99.90
18880;DHT22;9572;52.378;13.404;2022-11-15T04:05:46;4.20;99.90
18880;DHT22;9572;52.378;13.404;2022-11-15T04:08:13;4.10;99.90
18880;DHT22;9572;52.378;13.404;2022-11-15T04:10:41;4.10;99.90
18880;DHT22;9572;52.378;13.404;2022-11-15T04:13:08;4.10;99.90
18880;DHT22;9572;52.378;13.404;2022-11-15T04:15:35;4.10;99.90
18880;DHT22;9572;52.378;13.404;2022-11-15T04:18:02;4.10;99.90
18880;DHT22;9572;52.378;13.404;2022-11-15T04:20:30;4.10;99.90
18880;DHT22;9572;52.378;13.404;2022-11-15T04:23:16;4.10;99.90
18880;DHT22;9572;52.378;13.404;2022-11-15T04:26:05;4.10;99.90
18880;DHT22;9572;52.378;13.404;2022-11-15T04:28:32;4.10;99.90
18880;DHT22;9572;52.378;13.404;2022-11-15T04:30:59;4.10;99.90
18880;DHT22;9572;52.378;13.404;2022-11-15T04:33:26;4.00;99.90
18880;DHT22;9572;52.378;13.404;2022-11-15T04:35:53;4.00;99.90
18880;DHT22;9572;52.378;13.404;2022-11-15T04:38:34;4.00;99.90
18880;DHT22;9572;52.378;13.404;2022-11-15T04:41:03;4.00;99.90
18880;DHT22;9572;52.378;13.404;2022-11-15T04:43:30;4.00;99.90
18880;DHT22;9572;52.378;13.404;2022-11-15T04:45:57;4.10;99.90
18880;DHT22;9572;52.378;13.404;2022-11-15T04:48:24;4.00;99.90
18880;DHT22;9572;52.378;13.404;2022-11-15T04:50:51;4.10;99.90
18880;DHT22;9572;52.378;13.404;2022-11-15T04:53:18;4.00;99.90
18880;DHT22;9572;52.378;13.404;2022-11-15T04:55:45;4.10;99.90
18880;DHT22;9572;52.378;13.404;2022-11-15T04:58:13;4.10;99.90
18880;DHT22;9572;52.378;13.404;2022-11-15T05:00:40;4.00;99.90
18880;DHT22;9572;52.378;13.404;2022-11-15T05:03:09;4.00;99.90
18880;DHT22;9572;52.378;13.404;2022-11-15T05:05:53;4.00;99.90
18880;DHT22;9572;52.378;13.404;2022-11-15T05:08:20;4.00;99.90
18880;DHT22;9572;52.378;13.404;2022-11-15T05:10:47;4.00;99.90
18880;DHT22;9572;52.378;13.404;2022-11-15T05:13:16;4.00;99.90
18880;DHT22;9572;52.378;13.404;2022-11-15T05:15:43;4.00;99.90
18880;DHT22;9572;52.378;13.404;2022-11-15T05:18:11;4.00;99.90
18880;DHT22;9572;52.378;13.404;2022-11-15T05:20:38;4.00;99.90
18880;DHT22;9572;52.378;13.404;2022-11-15T05:23:04;4.00;99.90
18880;DHT22;9572;52.378;13.404;2022-11-15T05:25:32;4.00;99.90
18880;DHT22;9572;52.378;13.404;2022-11-15T05:28:01;4.00;99.90
18880;DHT22;9572;52.378;13.404;2022-11-15T05:30:29;4.00;99.90
18880;DHT22;9572;52.378;13.404;2022-11-15T05:32:56;4.00;99.90
18880;DHT22;9572;52.378;13.404;2022-11-15T05:35:30;4.00;99.90
18880;DHT22;9572;52.378;13.404;2022-11-15T05:37:58;4.00;99.90
18880;DHT22;9572;52.378;13.404;2022-11-15T05:40:25;4.10;99.90
18880;DHT22;9572;52.378;13.404;2022-11-15T05:42:52;4.10;99.90
18880;DHT22;9572;52.378;13.404;2022-11-15T05:45:19;4.10;99.90
18880;DHT22;9572;52.378;13.404;2022-11-15T05:47:49;4.10;99.90
18880;DHT22;9572;52.378;13.404;2022-11-15T05:50:17;4.10;99.90
18880;DHT22;9572;52.378;13.404;2022-11-15T05:52:46;4.10;99.90
18880;DHT22;9572;52.378;13.404;2022-11-15T05:55:13;4.00;99.90
18880;DHT22;9572;52.378;13.404;2022-11-15T05:57:41;4.00;99.90
18880;DHT22;9572;52.378;13.404;2022-11-15T06:00:08;4.00;99.90
18880;DHT22;9572;52.378;13.404;2022-11-15T06:02:36;4.00;99.90
18880;DHT22;9572;52.378;13.404;2022-11-15T06:05:04;4.00;99.90
18880;DHT22;9572;52.378;13.404;2022-11-15T06:07:31;4.00;99.90
18880;DHT22;9572;52.378;13.404;2022-11-15T06:09:58;3.90;99.90
18880;DHT22;9572;52.378;13.404;2022-11-15T06:12:25;3.90;99.90
18880;DHT22;9572;52.378;13.404;2022-11-15T06:14:52;3.90;99.90
18880;DHT22;9572;52.378;13.404;2022-11-15T06:17:19;4.00;99.90
18880;DHT22;9572;52.378;13.404;2022-11-15T06:19:45;4.00;99.90
18880;DHT22;9572;52.378;13.404;2022-11-15T06:22:14;3.90;99.90
18880;DHT22;9572;52.378;13.404;2022-11-15T06:24:41;3.90;99.90
18880;DHT22;9572;52.378;13.404;2022-11-15T06:27:10;3.90;99.90
18880;DHT22;9572;52.378;13.404;2022-11-15T06:29:37;3.90;99.90
18880;DHT22;9572;52.378;13.404;2022-11-15T06:32:04;3.90;99.90
18880;DHT22;9572;52.378;13.404;2022-11-15T06:34:31;3.90;99.90
18880;DHT22;9572;52.378;13.404;2022-11-15T06:36:58;3.90;99.90
18880;DHT22;9572;52.378;13.404;2022-11-15T06:39:26;3.90;99.90
18880;DHT22;9572;52.378;13.404;2022-11-15T06:41:53;3.90;99.90
18880;DHT22;9572;52.378;13.404;2022-11-15T06:44:20;4.00;99.90
18880;DHT22;9572;52.378;13.404;2022-11-15T06:46:47;4.00;99.90
18880;DHT22;9572;52.378;13.404;2022-11-15T06:49:13;4.00;99.90
18880;DHT22;9572;52.378;13.404;2022-11-15T06:51:40;4.00;99.90
18880;DHT22;9572;52.378;13.404;2022-11-15T06:54:07;4.00;99.90
18880;DHT22;9572;52.378;13.404;2022-11-15T06:56:35;4.10;99.90
18880;DHT22;9572;52.378;13.404;2022-11-15T06:59:02;4.10;99.90
18880;DHT22;9572;52.378;13.404;2022-11-15T07:01:29;4.10;99.90
18880;DHT22;9572;52.378;13.404;2022-11-15T07:03:56;4.10;99.90
18880;DHT22;9572;52.378;13.404;2022-11-15T07:06:23;4.20;99.90
18880;DHT22;9572;52.378;13.404;2022-11-15T07:08:50;4.20;99.90
18880;DHT22;9572;52.378;13.404;2022-11-15T07:11:17;4.30;99.90
18880;DHT22;9572;52.378;13.404;2022-11-15T07:13:45;4.30;99.90
18880;DHT22;9572;52.378;13.404;2022-11-15T07:16:12;4.40;99.90
18880;DHT22;9572;52.378;13.404;2022-11-15T07:18:40;4.40;99.90
18880;DHT22;9572;52.378;13.404;2022-11-15T07:21:09;4.40;99.90
18880;DHT22;9572;52.378;13.404;2022-11-15T07:23:36;4.50;99.90
18880;DHT22;9572;52.378;13.404;2022-11-15T07:26:04;4.50;99.90
18880;DHT22;9572;52.378;13.404;2022-11-15T07:28:31;4.60;99.90
18880;DHT22;9572;52.378;13.404;2022-11-15T07:31:02;4.60;99.90
18880;DHT22;9572;52.378;13.404;2022-11-15T07:33:30;4.70;99.90
18880;DHT22;9572;52.378;13.404;2022-11-15T07:35:59;4.70;99.90
18880;DHT22;9572;52.378;13.404;2022-11-15T07:38:27;4.80;99.90
18880;DHT22;9572;52.378;13.404;2022-11-15T07:40:57;4.80;99.90
18880;DHT22;9572;52.378;13.404;2022-11-15T07:43:24;4.80;99.90
18880;DHT22;9572;52.378;13.404;2022-11-15T07:45:53;4.90;99.90
18880;DHT22;9572;52.378;13.404;2022-11-15T07:48:22;4.90;99.90
18880;DHT22;9572;52.378;13.404;2022-11-15T07:50:49;5.00;99.90
18880;DHT22;9572;52.378;13.404;2022-11-15T07:53:16;5.10;99.90
18880;DHT22;9572;52.378;13.404;2022-11-15T07:55:42;5.10;99.90
18880;DHT22;9572;52.378;13.404;2022-11-15T07:58:11;5.10;99.90
18880;DHT22;9572;52.378;13.404;2022-11-15T08:00:38;5.20;99.90
18880;DHT22;9572;52.378;13.404;2022-11-15T08:03:06;5.30;99.90
18880;DHT22;9572;52.378;13.404;2022-11-15T08:05:36;5.30;99.90
18880;DHT22;9572;52.378;13.404;2022-11-15T08:08:04;5.40;99.90
18880;DHT22;9572;52.378;13.404;2022-11-15T08:10:31;5.50;99.90
18880;DHT22;9572;52.378;13.404;2022-11-15T08:12:59;5.50;99.90
18880;DHT22;9572;52.378;13.404;2022-11-15T08:15:26;5.60;99.90
18880;DHT22;9572;52.378;13.404;2022-11-15T08:17:54;5.60;99.90
18880;DHT22;9572;52.378;13.404;2022-11-15T08:20:21;5.70;99.90
18880;DHT22;9572;52.378;13.404;2022-11-15T08:22:49;5.80;99.90
18880;DHT22;9572;52.378;13.404;2022-11-15T08:25:16;5.80;99.90
18880;DHT22;9572;52.378;13.404;2022-11-15T08:27:44;5.90;99.90
18880;DHT22;9572;52.378;13.404;2022-11-15T08:30:11;6.00;99.90
18880;DHT22;9572;52.378;13.404;2022-11-15T08:32:39;6.00;99.90
18880;DHT22;9572;52.378;13.404;2022-11-15T08:35:06;6.10;99.90
18880;DHT22;9572;52.378;13.404;2022-11-15T08:37:34;6.20;99.90
18880;DHT22;9572;52.378;13.404;2022-11-15T08:40:03;6.30;99.90
18880;DHT22;9572;52.378;13.404;2022-11-15T08:42:30;6.30;99.90
18880;DHT22;9572;52.378;13.404;2022-11-15T08:44:57;6.40;99.90
18880;DHT22;9572;52.378;13.404;2022-11-15T08:47:23;6.50;99.90
18880;DHT22;9572;52.378;13.404;2022-11-15T08:49:50;6.60;99.90
18880;DHT22;9572;52.378;13.404;2022-11-15T08:52:17;6.60;99.90
18880;DHT22;9572;52.378;13.404;2022-11-15T08:54:44;6.70;99.90
18880;DHT22;9572;52.378;13.404;2022-11-15T08:57:13;6.80;99.90
18880;DHT22;9572;52.378;13.404;2022-11-15T08:59:40;6.80;99.90
18880;DHT22;9572;52.378;13.404;2022-11-15T09:02:11;6.90;99.90
18880;DHT22;9572;52.378;13.404;2022-11-15T09:04:40;7.00;99.90
18880;DHT22;9572;52.378;13.404;2022-11-15T09:07:07;7.20;99.90
18880;DHT22;9572;52.378;13.404;2022-11-15T09:09:34;7.20;99.90
18880;DHT22;9572;52.378;13.404;2022-11-15T09:12:01;7.30;99.90
18880;DHT22;9572;52.378;13.404;2022-11-15T09:14:29;7.40;99.90
18880;DHT22;9572;52.378;13.404;2022-11-15T09:16:57;7.40;99.90
18880;DHT22;9572;52.378;13.404;2022-11-15T09:19:24;7.50;99.90
18880;DHT22;9572;52.378;13.404;2022-11-15T09:21:50;7.60;99.90
18880;DHT22;9572;52.378;13.404;2022-11-15T09:24:17;7.60;99.90
18880;DHT22;9572;52.378;13.404;2022-11-15T09:26:44;7.70;99.90
18880;DHT22;9572;52.378;13.404;2022-11-15T09:29:11;7.80;99.90
18880;DHT22;9572;52.378;13.404;2022-11-15T09:31:40;7.80;99.90
18880;DHT22;9572;52.378;13.404;2022-11-15T09:34:06;8.00;99.90
18880;DHT22;9572;52.378;13.404;2022-11-15T09:36:33;8.10;99.90
18880;DHT22;9572;52.378;13.404;2022-11-15T09:39:00;8.10;99.90
18880;DHT22;9572;52.378;13.404;2022-11-15T09:41:50;8.20;99.90
18880;DHT22;9572;52.378;13.404;2022-11-15T09:44:36;8.30;99.90
18880;DHT22;9572;52.378;13.404;2022-11-15T09:47:17;8.30;99.90
18880;DHT22;9572;52.378;13.404;2022-11-15T09:49:51;8.50;99.90
18880;DHT22;9572;52.378;13.404;2022-11-15T09:52:19;8.50;99.90
18880;DHT22;9572;52.378;13.404;2022-11-15T09:54:49;8.50;99.90
18880;DHT22;9572;52.378;13.404;2022-11-15T09:57:18;8.60;99.90
18880;DHT22;9572;52.378;13.404;2022-11-15T10:00:00;8.80;99.90
18880;DHT22;9572;52.378;13.404;2022-11-15T10:02:46;8.90;99.90
18880;DHT22;9572;52.378;13.404;2022-11-15T10:05:19;8.90;99.90
18880;DHT22;9572;52.378;13.404;2022-11-15T10:07:58;8.90;99.90
18880;DHT22;9572;52.378;13.404;2022-11-15T10:10:31;9.10;99.90
18880;DHT22;9572;52.378;13.404;2022-11-15T10:13:00;9.20;99.90
18880;DHT22;9572;52.378;13.404;2022-11-15T10:15:27;9.30;99.90
18880;DHT22;9572;52.378;13.404;2022-11-15T10:18:07;9.30;99.90
18880;DHT22;9572;52.378;13.404;2022-11-15T10:20:44;9.40;99.90
18880;DHT22;9572;52.378;13.404;2022-11-15T10:23:14;9.50;99.90
18880;DHT22;9572;52.378;13.404;2022-11-15T10:25:42;9.60;99.90
18880;DHT22;9572;52.378;13.404;2022-11-15T10:28:13;9.70;99.90
18880;DHT22;9572;52.378;13.404;2022-11-15T10:30:43;9.80;99.90
18880;DHT22;9572;52.378;13.404;2022-11-15T10:33:23;9.90;99.90
18880;DHT22;9572;52.378;13.404;2022-11-15T10:36:15;10.00;99.90
18880;DHT22;9572;52.378;13.404;2022-11-15T10:38:56;10.10;99.90
18880;DHT22;9572;52.378;13.404;2022-11-15T10:41:30;10.20;99.90
18880;DHT22;9572;52.378;13.404;2022-11-15T10:44:18;10.20;99.90
18880;DHT22;9572;52.378;13.404;2022-11-15T10:46:46;10.30;99.90
18880;DHT22;9572;52.378;13.404;2022-11-15T10:49:17;10.40;99.90
18880;DHT22;9572;52.378;13.404;2022-11-15T10:51:47;10.50;99.90
18880;DHT22;9572;52.378;13.404;2022-11-15T10:54:19;10.60;99.90
18880;DHT22;9572;52.378;13.404;2022-11-15T10:56:50;10.70;99.90
18880;DHT22;9572;52.378;13.404;2022-11-15T10:59:24;10.70;99.90
18880;DHT22;9572;52.378;13.404;2022-11-15T11:01:52;10.70;99.90
18880;DHT22;9572;52.378;13.404;2022-11-15T11:04:21;10.80;99.90
18880;DHT22;9572;52.378;13.404;2022-11-15T11:06:50;10.90;99.90
18880;DHT22;9572;52.378;13.404;2022-11-15T11:09:30;10.90;99.90
18880;DHT22;9572;52.378;13.404;2022-11-15T11:11:57;11.00;99.90
18880;DHT22;9572;52.378;13.404;2022-11-15T11:14:26;11.10;99.90
18880;DHT22;9572;52.378;13.404;2022-11-15T11:16:56;11.20;99.90
18880;DHT22;9572;52.378;13.404;2022-11-15T11:19:48;11.30;99.90
18880;DHT22;9572;52.378;13.404;2022-11-15T11:22:24;11.40;99.90
18880;DHT22;9572;52.378;13.404;2022-11-15T11:25:01;11.50;99.90
18880;DHT22;9572;52.378;13.404;2022-11-15T11:27:38;11.60;99.90
18880;DHT22;9572;52.378;13.404;2022-11-15T11:30:11;11.50;99.90
18880;DHT22;9572;52.378;13.404;2022-11-15T11:32:56;11.60;99.90
18880;DHT22;9572;52.378;13.404;2022-11-15T11:35:29;11.80;99.90
18880;DHT22;9572;52.378;13.404;2022-11-15T11:38:08;11.90;99.90
18880;DHT22;9572;52.378;13.404;2022-11-15T11:40:40;11.90;99.90
18880;DHT22;9572;52.378;13.404;2022-11-15T11:43:15;11.80;99.90
18880;DHT22;9572;52.378;13.404;2022-11-15T11:46:08;11.80;99.90
18880;DHT22;9572;52.378;13.404;2022-11-15T11:48:41;11.80;99.90
18880;DHT22;9572;52.378;13.404;2022-11-15T11:51:15;11.80;99.90
18880;DHT22;9572;52.378;13.404;2022-11-15T11:53:49;11.80;99.90
18880;DHT22;9572;52.378;13.404;2022-11-15T11:56:23;11.80;99.90
18880;DHT22;9572;52.378;13.404;2022-11-15T11:58:53;11.80;99.90
18880;DHT22;9572;52.378;13.404;2022-11-15T12:01:23;12.00;99.90
18880;DHT22;9572;52.378;13.404;2022-11-15T12:03:55;12.10;99.90
18880;DHT22;9572;52.378;13.404;2022-11-15T12:06:33;12.20;99.90
18880;DHT22;9572;52.378;13.404;2022-11-15T12:09:07;12.20;99.90
18880;DHT22;9572;52.378;13.404;2022-11-15T12:11:47;12.20;99.90
18880;DHT22;9572;52.378;13.404;2022-11-15T12:14:24;12.30;99.90
18880;DHT22;9572;52.378;13.404;2022-11-15T12:16:51;12.30;99.90
18880;DHT22;9572;52.378;13.404;2022-11-15T12:19:18;12.30;99.90
18880;DHT22;9572;52.378;13.404;2022-11-15T12:21:50;12.20;99.90
18880;DHT22;9572;52.378;13.404;2022-11-15T12:24:22;12.30;99.90
18880;DHT22;9572;52.378;13.404;2022-11-15T12:26:55;12.40;99.90
18880;DHT22;9572;52.378;13.404;2022-11-15T12:29:27;12.50;99.90
18880;DHT22;9572;52.378;13.404;2022-11-15T12:31:56;12.50;99.90
18880;DHT22;9572;52.378;13.404;2022-11-15T12:34:43;12.60;99.90
18880;DHT22;9572;52.378;13.404;2022-11-15T12:37:34;12.60;99.90
18880;DHT22;9572;52.378;13.404;2022-11-15T12:40:22;12.60;99.90
18880;DHT22;9572;52.378;13.404;2022-11-15T12:43:01;12.60;99.90
18880;DHT22;9572;52.378;13.404;2022-11-15T12:45:30;12.60;99.90
18880;DHT22;9572;52.378;13.404;2022-11-15T12:54:55;12.70;99.90
18880;DHT22;9572;52.378;13.404;2022-11-15T12:57:34;12.80;99.90
18880;DHT22;9572;52.378;13.404;2022-11-15T13:02:47;12.90;99.90
18880;DHT22;9572;52.378;13.404;2022-11-15T13:05:53;13.00;99.90
18880;DHT22;9572;52.378;13.404;2022-11-15T13:08:39;13.00;99.90
18880;DHT22;9572;52.378;13.404;2022-11-15T13:14:45;12.90;99.90
18880;DHT22;9572;52.378;13.404;2022-11-15T13:17:36;13.00;99.90
18880;DHT22;9572;52.378;13.404;2022-11-15T13:20:20;13.00;99.90
18880;DHT22;9572;52.378;13.404;2022-11-15T13:22:49;13.10;99.90
18880;DHT22;9572;52.378;13.404;2022-11-15T13:25:43;13.00;99.90
18880;DHT22;9572;52.378;13.404;2022-11-15T13:28:21;13.00;99.90
18880;DHT22;9572;52.378;13.404;2022-11-15T13:30:54;12.90;99.90
18880;DHT22;9572;52.378;13.404;2022-11-15T13:33:25;12.90;99.90
18880;DHT22;9572;52.378;13.404;2022-11-15T13:35:55;12.90;99.90
18880;DHT22;9572;52.378;13.404;2022-11-15T13:38:27;12.90;99.90
18880;DHT22;9572;52.378;13.404;2022-11-15T13:40:55;12.80;99.90
18880;DHT22;9572;52.378;13.404;2022-11-15T13:43:34;12.70;99.90
18880;DHT22;9572;52.378;13.404;2022-11-15T13:46:12;12.70;99.90
18880;DHT22;9572;52.378;13.404;2022-11-15T13:48:40;12.60;99.90
18880;DHT22;9572;52.378;13.404;2022-11-15T13:51:12;12.60;99.90
18880;DHT22;9572;52.378;13.404;2022-11-15T13:53:43;12.60;99.90
18880;DHT22;9572;52.378;13.404;2022-11-15T13:56:13;12.50;99.90
18880;DHT22;9572;52.378;13.404;2022-11-15T13:58:41;12.40;99.90
18880;DHT22;9572;52.378;13.404;2022-11-15T14:01:16;12.30;99.90
18880;DHT22;9572;52.378;13.404;2022-11-15T14:03:51;12.20;99.90
18880;DHT22;9572;52.378;13.404;2022-11-15T14:06:20;12.20;99.90
18880;DHT22;9572;52.378;13.404;2022-11-15T14:11:57;12.10;99.90
18880;DHT22;9572;52.378;13.404;2022-11-15T14:14:25;12.10;99.90
18880;DHT22;9572;52.378;13.404;2022-11-15T14:16:55;12.10;99.90
18880;DHT22;9572;52.378;13.404;2022-11-15T14:19:39;12.00;99.90
18880;DHT22;9572;52.378;13.404;2022-11-15T14:22:11;12.00;99.90
18880;DHT22;9572;52.378;13.404;2022-11-15T14:24:40;11.90;99.90
18880;DHT22;9572;52.378;13.404;2022-11-15T14:27:18;11.90;99.90
18880;DHT22;9572;52.378;13.404;2022-11-15T14:29:46;11.70;99.90
18880;DHT22;9572;52.378;13.404;2022-11-15T14:32:16;11.60;99.90
18880;DHT22;9572;52.378;13.404;2022-11-15T14:34:43;11.60;99.90
18880;DHT22;9572;52.378;13.404;2022-11-15T14:37:20;11.50;99.90
18880;DHT22;9572;52.378;13.404;2022-11-15T14:39:47;11.50;99.90
18880;DHT22;9572;52.378;13.404;2022-11-15T14:42:14;11.40;99.90
18880;DHT22;9572;52.378;13.404;2022-11-15T14:44:41;11.40;99.90
18880;DHT22;9572;52.378;13.404;2022-11-15T14:47:08;11.30;99.90
18880;DHT22;9572;52.378;13.404;2022-11-15T14:49:36;11.30;99.90
18880;DHT22;9572;52.378;13.404;2022-11-15T14:52:09;11.20;99.90
18880;DHT22;9572;52.378;13.404;2022-11-15T14:54:38;11.10;99.90
18880;DHT22;9572;52.378;13.404;2022-11-15T14:57:05;11.10;99.90
18880;DHT22;9572;52.378;13.404;2022-11-15T14:59:32;11.00;99.90
18880;DHT22;9572;52.378;13.404;2022-11-15T15:01:59;10.90;99.90
18880;DHT22;9572;52.378;13.404;2022-11-15T15:04:26;10.90;99.90
18880;DHT22;9572;52.378;13.404;2022-11-15T15:06:54;10.80;99.90
18880;DHT22;9572;52.378;13.404;2022-11-15T15:09:21;10.80;99.90
18880;DHT22;9572;52.378;13.404;2022-11-15T15:11:48;10.70;99.90
18880;DHT22;9572;52.378;13.404;2022-11-15T15:14:15;10.60;99.90
18880;DHT22;9572;52.378;13.404;2022-11-15T15:16:41;10.60;99.90
18880;DHT22;9572;52.378;13.404;2022-11-15T15:19:08;10.50;99.90
18880;DHT22;9572;52.378;13.404;2022-11-15T15:21:35;10.40;99.90
18880;DHT22;9572;52.378;13.404;2022-11-15T15:24:04;10.40;99.90
18880;DHT22;9572;52.378;13.404;2022-11-15T15:26:31;10.30;99.90
18880;DHT22;9572;52.378;13.404;2022-11-15T15:29:00;10.30;99.90
18880;DHT22;9572;52.378;13.404;2022-11-15T15:31:27;10.20;99.90
18880;DHT22;9572;52.378;13.404;2022-11-15T15:33:54;10.20;99.90
18880;DHT22;9572;52.378;13.404;2022-11-15T15:36:21;10.10;99.90
18880;DHT22;9572;52.378;13.404;2022-11-15T15:38:47;10.10;99.90
18880;DHT22;9572;52.378;13.404;2022-11-15T15:41:16;10.00;99.90
18880;DHT22;9572;52.378;13.404;2022-11-15T15:43:43;10.00;99.90
18880;DHT22;9572;52.378;13.404;2022-11-15T15:46:12;10.00;99.90
18880;DHT22;9572;52.378;13.404;2022-11-15T15:48:40;9.90;99.90
18880;DHT22;9572;52.378;13.404;2022-11-15T15:51:07;9.90;99.90
18880;DHT22;9572;52.378;13.404;2022-11-15T15:53:34;9.70;99.90
18880;DHT22;9572;52.378;13.404;2022-11-15T15:56:02;9.60;99.90
18880;DHT22;9572;52.378;13.404;2022-11-15T15:58:30;9.60;99.90
18880;DHT22;9572;52.378;13.404;2022-11-15T16:00:58;9.50;99.90
18880;DHT22;9572;52.378;13.404;2022-11-15T16:03:25;9.60;99.90
18880;DHT22;9572;52.378;13.404;2022-11-15T16:05:53;9.60;99.90
18880;DHT22;9572;52.378;13.404;2022-11-15T16:08:22;9.60;99.90
18880;DHT22;9572;52.378;13.404;2022-11-15T16:10:49;9.50;99.90
18880;DHT22;9572;52.378;13.404;2022-11-15T16:13:16;9.50;99.90
18880;DHT22;9572;52.378;13.404;2022-11-15T16:15:47;9.50;99.90
18880;DHT22;9572;52.378;13.404;2022-11-15T16:18:17;9.50;99.90
18880;DHT22;9572;52.378;13.404;2022-11-15T16:20:45;9.50;99.90
18880;DHT22;9572;52.378;13.404;2022-11-15T16:23:15;9.40;99.90
18880;DHT22;9572;52.378;13.404;2022-11-15T16:25:46;9.40;99.90
18880;DHT22;9572;52.378;13.404;2022-11-15T16:28:17;9.30;99.90